createdAt,value
2023-04-17T00:05:11.902Z,25.8
2023-04-17T00:11:18.619Z,25.6
2023-04-17T00:17:10.294Z,26.8
2023-04-17T00:22:46.537Z,31.3
2023-04-17T00:28:07.852Z,27.3
2023-04-17T00:34:00.141Z,26.1
2023-04-17T00:39:51.240Z,25.8
2023-04-17T00:45:43.030Z,25.6
2023-04-17T00:51:34.951Z,27
2023-04-17T00:57:26.114Z,31.3
2023-04-17T01:03:20.409Z,27
2023-04-17T01:08:58.090Z,25.9
2023-04-17T01:14:33.234Z,25.8
2023-04-17T01:20:25.560Z,25.6
2023-04-17T01:26:16.968Z,27.1
2023-04-17T01:32:08.148Z,31.3
2023-04-17T01:37:44.776Z,27
2023-04-17T01:43:36.123Z,25.9
2023-04-17T01:49:12.568Z,25.8
2023-04-17T01:55:04.401Z,25.6
2023-04-17T02:00:40.730Z,27.3
2023-04-17T02:06:18.177Z,31.3
2023-04-17T02:12:10.596Z,27.1
2023-04-17T02:17:46.776Z,26
2023-04-17T02:23:22.913Z,25.8
2023-04-17T02:29:14.990Z,25.6
2023-04-17T02:35:06.614Z,27.1
2023-04-17T02:40:57.780Z,31.4
2023-04-17T02:46:49.890Z,27.1
2023-04-17T02:52:26.305Z,26.1
2023-04-17T02:58:17.867Z,25.9
2023-04-17T03:04:11.574Z,25.8
2023-04-17T03:10:03.402Z,27.6
2023-04-17T03:15:56.701Z,31.4
2023-04-17T03:21:49.339Z,27
2023-04-17T03:27:25.292Z,26.1
2023-04-17T03:33:19.329Z,25.9
2023-04-17T03:38:55.957Z,25.8
2023-04-17T03:44:32.615Z,27.4
2023-04-17T03:50:23.918Z,31.3
2023-04-17T03:56:00.704Z,27.1
2023-04-17T04:01:36.832Z,26.1
2023-04-17T04:07:29.141Z,25.9
2023-04-17T04:13:21.395Z,25.7
2023-04-17T04:18:57.984Z,25.9
2023-04-17T04:24:34.568Z,30.6
2023-04-17T04:30:27.601Z,27.5
2023-04-17T04:35:49.455Z,26.3
2023-04-17T04:41:28.502Z,26.1
2023-04-17T04:46:49.602Z,25.8
2023-04-17T04:52:25.844Z,25.6
2023-04-17T04:57:45.097Z,29.8
2023-04-17T05:03:23.655Z,28.7
2023-04-17T05:09:01.225Z,26.4
2023-04-17T05:14:36.743Z,25.9
2023-04-17T05:20:31.329Z,25.8
2023-04-17T05:26:22.774Z,25.6
2023-04-17T05:31:58.606Z,29.4
2023-04-17T05:37:35.380Z,29.1
2023-04-17T05:43:14.648Z,26.5
2023-04-17T05:48:50.444Z,26
2023-04-17T05:54:27.206Z,25.8
2023-04-17T06:00:18.593Z,25.6
2023-04-17T06:05:58.516Z,28.8
2023-04-17T06:11:37.416Z,29.7
2023-04-17T06:17:13.438Z,26.6
2023-04-17T06:22:50.784Z,26
2023-04-17T06:28:27.257Z,25.8
2023-04-17T06:34:03.436Z,25.6
2023-04-17T06:39:47.617Z,27.6
2023-04-17T06:45:09.096Z,31
2023-04-17T06:50:45.431Z,27
2023-04-17T06:56:21.012Z,26.1
2023-04-17T07:02:01.073Z,25.8
2023-04-17T07:07:23.504Z,25.7
2023-04-17T07:12:43.923Z,25.8
2023-04-17T07:18:21.701Z,30.8
2023-04-17T07:23:58.812Z,27.4
2023-04-17T07:29:34.830Z,26.2
2023-04-17T07:35:12.398Z,25.8
2023-04-17T07:40:51.973Z,25.7
2023-04-17T07:46:30.427Z,25.4
2023-04-17T07:51:55.254Z,25.3
2023-04-17T07:57:34.631Z,24.7
2023-04-17T08:02:56.048Z,29.8
2023-04-17T08:08:35.257Z,26.7
2023-04-17T08:14:09.105Z,26.1
2023-04-17T08:19:45.654Z,25.8
2023-04-17T08:25:25.667Z,25.6
2023-04-17T08:31:04.366Z,25.4
2023-04-17T08:37:13.968Z,25.1
2023-04-17T08:42:52.087Z,24.9
2023-04-17T08:48:44.604Z,28.8
2023-04-17T08:54:35.930Z,27.3
2023-04-17T08:59:57.434Z,26.3
2023-04-17T09:05:36.962Z,25.9
2023-04-17T09:11:12.841Z,25.8
2023-04-17T09:17:06.182Z,25.4
2023-04-17T09:22:27.465Z,25.3
2023-04-17T09:27:47.820Z,25
2023-04-17T09:33:10.170Z,24.8
2023-04-17T09:38:49.439Z,27.6
2023-04-17T09:44:41.278Z,28.2
2023-04-17T09:50:33.664Z,26.4
2023-04-17T09:56:11.294Z,25.9
2023-04-17T10:02:03.616Z,25.7
2023-04-17T10:07:57.238Z,25.5
2023-04-17T10:13:49.360Z,25.2
2023-04-17T10:19:42.737Z,24.9
2023-04-17T10:25:36.427Z,24.7
2023-04-17T10:31:30.897Z,28.6
2023-04-17T10:37:24.605Z,27.7
2023-04-17T10:43:02.127Z,26.3
2023-04-17T10:48:55.699Z,26
2023-04-17T10:54:47.952Z,25.8
2023-04-17T11:00:43.546Z,25.6
2023-04-17T11:06:22.331Z,25.3
2023-04-17T11:12:16.113Z,25
2023-04-17T11:17:53.319Z,24.3
2023-04-17T11:23:30.236Z,30.1
2023-04-17T11:29:06.666Z,26.8
2023-04-17T11:34:28.450Z,26
2023-04-17T11:40:05.371Z,25.8
2023-04-17T11:45:42.122Z,25.6
2023-04-17T11:51:34.691Z,25.4
2023-04-17T11:57:25.958Z,25.1
2023-04-17T12:03:19.190Z,28.8
2023-04-17T12:08:58.488Z,27.5
2023-04-17T12:14:50.331Z,26.3
2023-04-17T12:20:26.895Z,25.9
2023-04-17T12:26:18.479Z,25.6
2023-04-17T12:31:55.083Z,25.4
2023-04-17T12:37:31.520Z,25.2
2023-04-17T12:43:21.587Z,24.9
2023-04-17T12:49:15.436Z,24.7
2023-04-17T12:55:06.896Z,24.4
2023-04-17T13:00:59.180Z,24.2
2023-04-17T13:06:52.817Z,24
2023-04-17T13:12:13.123Z,23.8
2023-04-17T13:18:06.927Z,23.6
2023-04-17T13:23:58.688Z,23.4
2023-04-17T13:29:52.135Z,23.3
2023-04-17T13:35:47.380Z,23.1
2023-04-17T13:41:24.322Z,22.9
2023-04-17T13:47:17.801Z,22.8
2023-04-17T13:53:11.227Z,22.7
2023-04-17T13:59:02.243Z,22.5
2023-04-17T14:04:42.844Z,22.4
2023-04-17T14:10:23.022Z,22.3
2023-04-17T14:16:14.413Z,22.3
2023-04-17T14:21:58.300Z,22.1
2023-04-17T14:27:35.207Z,22.1
2023-04-17T14:33:11.638Z,21.9
2023-04-17T14:38:52.568Z,21.9
2023-04-17T14:44:46.613Z,21.8
2023-04-17T14:50:49.706Z,21.8
2023-04-17T14:56:40.003Z,21.7
2023-04-17T15:02:32.924Z,21.6
2023-04-17T15:08:10.011Z,21.6
2023-04-17T15:14:01.653Z,21.5
2023-04-17T15:19:54.288Z,21.5
2023-04-17T15:25:45.726Z,21.4
2023-04-17T15:31:36.515Z,21.4
2023-04-17T15:37:28.423Z,21.3
2023-04-17T15:43:21.788Z,21.3
2023-04-17T15:49:38.110Z,21.3
2023-04-17T15:55:32.606Z,21.2
2023-04-17T16:01:23.665Z,21.2
2023-04-17T16:12:53.595Z,21.1
2023-04-17T16:18:44.708Z,21.1
2023-04-17T16:24:36.336Z,21
2023-04-17T16:30:13.340Z,21
2023-04-17T16:36:05.127Z,20.9
2023-04-17T16:41:47.500Z,20.9
2023-04-17T16:48:03.246Z,20.9
2023-04-17T16:53:56.237Z,20.9
2023-04-17T16:59:46.966Z,20.9
2023-04-17T17:05:40.568Z,20.9
2023-04-17T17:10:46.032Z,20.8
2023-04-17T17:16:21.887Z,20.8
2023-04-17T17:22:14.191Z,20.8
2023-04-17T17:27:48.654Z,20.8
2023-04-17T17:33:25.742Z,20.8
2023-04-17T17:39:13.781Z,20.8
2023-04-17T17:45:05.169Z,20.8
2023-04-17T17:50:59.077Z,20.8
2023-04-17T17:56:37.989Z,20.7
2023-04-17T18:02:27.925Z,20.7
2023-04-17T18:08:06.384Z,20.7
2023-04-17T18:13:27.638Z,20.7
2023-04-17T18:19:04.380Z,20.6
2023-04-17T18:24:39.798Z,20.6
2023-04-17T18:30:16.330Z,20.6
2023-04-17T18:36:08.115Z,20.6
2023-04-17T18:41:46.623Z,20.6
2023-04-17T18:47:23.255Z,24.1
2023-04-17T18:53:05.861Z,29.2
2023-04-17T18:58:42.337Z,27.5
2023-04-17T19:03:49.252Z,26.3
2023-04-17T19:09:42.594Z,25.9
2023-04-17T19:15:35.213Z,25.7
2023-04-17T19:21:28.304Z,25.4
2023-04-17T19:27:21.396Z,25.1
2023-04-17T19:32:58.706Z,24.8
2023-04-17T19:38:36.353Z,24.5
2023-04-17T19:44:27.807Z,28.7
2023-04-17T19:50:21.250Z,28.1
2023-04-17T19:55:28.621Z,26.4
2023-04-17T20:01:22.006Z,26
2023-04-17T20:06:47.014Z,25.8
2023-04-17T20:12:39.443Z,25.5
2023-04-17T20:18:16.401Z,25.2
2023-04-17T20:24:10.173Z,24.9
2023-04-17T20:30:02.362Z,24.6
2023-04-17T20:35:54.764Z,26.7
2023-04-17T20:41:14.876Z,30.6
2023-04-17T20:47:07.619Z,26.9
2023-04-17T20:53:12.346Z,26.1
2023-04-17T20:59:03.025Z,25.9
2023-04-17T21:04:54.367Z,25.6
2023-04-17T21:10:31.235Z,25.4
2023-04-17T21:15:51.492Z,25.1
2023-04-17T21:21:28.548Z,24.9
2023-04-17T21:27:03.912Z,24.7
2023-04-17T21:32:39.998Z,28.8
2023-04-17T21:38:16.431Z,28.3
2023-04-17T21:44:10.091Z,26.5
2023-04-17T21:50:01.201Z,26.1
2023-04-17T21:55:53.700Z,25.9
2023-04-17T22:01:44.300Z,25.7
2023-04-17T22:07:43.920Z,25.4
2023-04-17T22:12:53.104Z,25.2
2023-04-17T22:18:45.052Z,24.9
2023-04-17T22:24:36.130Z,25
2023-04-17T22:30:12.866Z,30
2023-04-17T22:35:48.265Z,27.2
2023-04-17T22:41:39.160Z,26.3
2023-04-17T22:47:01.315Z,26
2023-04-17T22:52:37.944Z,25.9
2023-04-17T22:58:24.364Z,25.6
2023-04-17T23:04:17.077Z,25.4
2023-04-17T23:09:53.390Z,25.1
2023-04-17T23:15:29.237Z,24.9
2023-04-17T23:20:51.038Z,26.9
2023-04-17T23:26:16.864Z,30.6
2023-04-17T23:31:53.102Z,26.9
2023-04-17T23:37:29.848Z,26.3
2023-04-17T23:43:06.037Z,26
2023-04-17T23:48:58.292Z,25.8
2023-04-17T23:54:50.444Z,25.6
